Time;durP1;ratioP1;P1;durP2;ratioP2;P2;SDS_P1;SDS_P2;PMS_P1;PMS_P2;Temp;Humidity;BMP_temperature;BMP_pressure;BME280_temperature;BME280_humidity;BME280_pressure;Samples;Min_cycle;Max_cycle;Signal;HPM_P1;HPM_P2
2022/03/06 00:01:58;;;;;;;24.20;11.60;;;;;;;-1.04;81.13;101759.91;107164;1250;59315;-68
2022/03/06 00:04:27;;;;;;;20.00;11.60;;;;;;;-1.05;81.15;101756.34;107219;1252;59997;-69
2022/03/06 00:06:57;;;;;;;16.60;9.20;;;;;;;-1.07;81.02;101754.48;107191;1253;72388;-71
2022/03/06 00:09:26;;;;;;;13.50;6.60;;;;;;;-1.05;81.31;101754.80;107280;1250;71909;-71
2022/03/06 00:11:55;;;;;;;17.60;9.40;;;;;;;-1.06;81.04;101752.58;107240;1250;70059;-68
2022/03/06 00:14:25;;;;;;;16.50;9.50;;;;;;;-1.06;81.07;101748.48;107123;1250;73806;-71
2022/03/06 00:16:54;;;;;;;20.00;10.40;;;;;;;-1.08;81.02;101746.45;107292;1251;58943;-68
2022/03/06 00:19:23;;;;;;;17.80;10.80;;;;;;;-1.15;81.19;101741.70;107207;1251;62058;-68
2022/03/06 00:21:53;;;;;;;21.30;11.70;;;;;;;-1.13;81.15;101742.72;107236;1251;73137;-69
2022/03/06 00:24:21;;;;;;;23.30;12.40;;;;;;;-1.13;81.10;101742.20;107187;1251;72899;-70
2022/03/06 00:26:51;;;;;;;24.20;13.10;;;;;;;-1.07;81.91;101738.39;107203;1251;70948;-70
2022/03/06 00:29:20;;;;;;;29.90;15.20;;;;;;;-0.98;81.76;101735.77;107146;1251;73790;-69
2022/03/06 00:31:49;;;;;;;23.70;13.90;;;;;;;-0.90;81.70;101736.39;107166;1250;61321;-70
2022/03/06 00:34:18;;;;;;;21.80;12.30;;;;;;;-0.84;81.37;101737.18;107216;1251;59452;-70
2022/03/06 00:36:47;;;;;;;18.90;9.70;;;;;;;-0.75;81.30;101734.71;107190;1251;71185;-69
2022/03/06 00:39:19;;;;;;;17.00;10.00;;;;;;;-0.73;80.63;101737.26;107198;1251;69547;-70
2022/03/06 00:41:48;;;;;;;17.70;9.20;;;;;;;-0.78;80.48;101737.80;107191;1251;68795;-67
2022/03/06 00:44:17;;;;;;;14.10;7.10;;;;;;;-0.83;80.57;101734.44;107282;1250;73243;-70
2022/03/06 00:46:47;;;;;;;5.80;3.80;;;;;;;-0.83;80.23;101738.36;107198;1251;61475;-69
2022/03/06 00:49:16;;;;;;;16.40;7.90;;;;;;;-0.89;80.02;101737.22;107172;1253;61294;-69
2022/03/06 00:51:45;;;;;;;17.90;9.90;;;;;;;-0.95;80.38;101735.92;107175;1251;73978;-69
2022/03/06 00:54:14;;;;;;;17.50;9.00;;;;;;;-0.97;80.75;101737.13;107136;1251;73727;-69
2022/03/06 00:56:43;;;;;;;13.00;7.60;;;;;;;-0.99;80.83;101737.82;107276;1251;70417;-70
2022/03/06 00:59:13;;;;;;;22.00;10.60;;;;;;;-1.00;80.61;101735.77;107132;1250;73174;-69
2022/03/06 01:01:42;;;;;;;18.30;10.40;;;;;;;-1.03;80.56;101734.09;107027;1253;60281;-71
2022/03/06 01:04:11;;;;;;;18.20;9.10;;;;;;;-1.04;80.78;101734.10;107111;1253;60465;-70
2022/03/06 01:06:40;;;;;;;15.60;8.50;;;;;;;-1.03;80.92;101734.95;107363;1250;71585;-71
2022/03/06 01:09:09;;;;;;;22.40;11.70;;;;;;;-1.02;80.84;101732.38;107236;1251;71894;-70
2022/03/06 01:11:38;;;;;;;19.80;9.60;;;;;;;-0.97;80.75;101734.05;107212;1251;70628;-68
2022/03/06 01:14:07;;;;;;;18.60;10.10;;;;;;;-0.94;80.76;101731.12;107035;1254;75469;-67
2022/03/06 01:16:36;;;;;;;18.90;9.80;;;;;;;-0.97;80.40;101728.73;107182;1251;58994;-69
2022/03/06 01:19:06;;;;;;;21.10;11.60;;;;;;;-0.98;80.98;101725.33;107200;1250;61733;-69
2022/03/06 01:21:35;;;;;;;21.80;11.00;;;;;;;-0.94;81.18;101723.74;107256;1251;73169;-69
2022/03/06 01:24:04;;;;;;;21.40;11.80;;;;;;;-0.86;80.86;101719.58;107108;1250;73196;-70
2022/03/06 01:26:34;;;;;;;20.50;12.40;;;;;;;-0.77;80.88;101720.86;107241;1251;69168;-70
2022/03/06 01:29:04;;;;;;;18.90;11.30;;;;;;;-0.70;80.31;101719.77;107308;1251;71998;-71
2022/03/06 01:31:33;;;;;;;16.80;10.50;;;;;;;-0.65;80.42;101718.18;107011;1254;58921;-68
2022/03/06 01:34:03;;;;;;;19.90;10.90;;;;;;;-0.64;80.59;101711.15;107033;1251;59738;-70
2022/03/06 01:36:32;;;;;;;17.70;10.80;;;;;;;-0.65;80.30;101713.55;107079;1253;71493;-71
2022/03/06 01:39:02;;;;;;;20.80;11.30;;;;;;;-0.63;80.37;101713.20;107115;1251;73256;-69
2022/03/06 01:41:36;;;;;;;20.80;10.60;;;;;;;-0.59;80.70;101715.21;107142;1250;71527;-70
2022/03/06 01:44:10;;;;;;;21.90;11.50;;;;;;;-0.57;81.13;101710.58;107064;1251;74222;-70
2022/03/06 01:46:40;;;;;;;18.30;11.00;;;;;;;-0.62;80.55;101712.16;106981;1253;59673;-70
2022/03/06 01:49:09;;;;;;;20.40;12.00;;;;;;;-0.59;80.05;101709.39;107088;1251;60497;-72
2022/03/06 01:51:38;;;;;;;19.70;11.60;;;;;;;-0.54;80.15;101708.31;107078;1251;73928;-71
2022/03/06 01:54:07;;;;;;;14.90;7.90;;;;;;;-0.52;80.31;101711.03;107131;1251;73321;-70
2022/03/06 01:56:36;;;;;;;16.60;9.00;;;;;;;-0.48;80.09;101715.27;107095;1251;70917;-70
2022/03/06 01:59:06;;;;;;;18.30;9.50;;;;;;;-0.51;79.58;101716.67;107178;1251;71685;-69
2022/03/06 02:01:35;;;;;;;20.40;10.70;;;;;;;-0.58;79.67;101715.04;107247;1251;62264;-71
2022/03/06 02:04:04;;;;;;;18.80;10.40;;;;;;;-0.64;79.81;101719.71;107130;1251;60045;-70
2022/03/06 02:06:33;;;;;;;18.60;10.00;;;;;;;-0.68;79.77;101720.95;108634;1253;70941;-71
2022/03/06 02:09:02;;;;;;;20.70;11.00;;;;;;;-0.74;80.24;101721.36;107402;1251;70671;-72
2022/03/06 02:11:31;;;;;;;21.30;11.50;;;;;;;-0.75;80.33;101722.71;107228;1251;68762;-70
2022/03/06 02:14:02;;;;;;;15.40;8.60;;;;;;;-0.72;80.13;101719.63;107152;1251;72959;-71
2022/03/06 02:16:32;;;;;;;19.60;11.00;;;;;;;-0.64;80.65;101718.52;107254;1251;59775;-70
2022/03/06 02:19:02;;;;;;;21.40;10.90;;;;;;;-0.65;80.33;101717.34;107272;1250;62150;-70
2022/03/06 02:21:30;;;;;;;20.30;11.30;;;;;;;-0.70;80.39;101718.73;107395;1251;74365;-67
2022/03/06 02:23:59;;;;;;;18.30;10.60;;;;;;;-0.70;80.18;101714.30;107437;1251;70134;-70
2022/03/06 02:26:29;;;;;;;18.40;10.70;;;;;;;-0.68;80.09;101714.29;107383;1251;68719;-70
2022/03/06 02:28:58;;;;;;;18.10;10.40;;;;;;;-0.67;80.04;101712.23;107368;1251;73071;-71
2022/03/06 02:31:28;;;;;;;21.30;10.40;;;;;;;-0.65;80.07;101714.41;107330;1251;62565;-70
2022/03/06 02:33:57;;;;;;;16.80;10.20;;;;;;;-0.66;80.19;101709.30;107198;1251;60995;-68
2022/03/06 02:36:26;;;;;;;16.20;9.60;;;;;;;-0.65;79.91;101708.95;107317;1251;74436;-69
2022/03/06 02:38:55;;;;;;;21.00;11.20;;;;;;;-0.63;80.12;101706.52;107263;1251;72971;-72
2022/03/06 02:41:23;;;;;;;19.80;11.30;;;;;;;-0.57;79.97;101702.36;107357;1251;71334;-71
2022/03/06 02:43:52;;;;;;;21.30;12.50;;;;;;;-0.53;79.65;101700.44;107159;1250;71907;-70
2022/03/06 02:46:21;;;;;;;21.40;11.90;;;;;;;-0.50;79.83;101703.15;107302;1251;58959;-70
2022/03/06 02:48:50;;;;;;;21.30;12.00;;;;;;;-0.48;79.56;101705.86;107354;1251;62288;-71
2022/03/06 02:51:19;;;;;;;18.70;11.60;;;;;;;-0.47;79.52;101711.66;107352;1251;72226;-70
2022/03/06 02:53:48;;;;;;;22.10;11.80;;;;;;;-0.45;79.41;101711.31;107327;1250;70729;-71
2022/03/06 02:56:17;;;;;;;19.70;10.20;;;;;;;-0.43;79.17;101712.30;107299;1251;69083;-71
2022/03/06 02:58:46;;;;;;;14.20;7.90;;;;;;;-0.40;79.87;101712.27;107257;1251;71292;-74
2022/03/06 03:01:15;;;;;;;15.30;8.80;;;;;;;-0.41;79.31;101714.17;107292;1251;61426;-71
2022/03/06 03:03:44;;;;;;;19.30;10.20;;;;;;;-0.47;79.04;101714.75;107308;1251;60672;-69
2022/03/06 03:06:13;;;;;;;19.80;9.50;;;;;;;-0.53;79.33;101716.86;107318;1251;71017;-70
2022/03/06 03:08:42;;;;;;;18.20;10.10;;;;;;;-0.59;79.17;101717.95;107365;1251;71233;-70
2022/03/06 03:11:10;;;;;;;14.50;8.70;;;;;;;-0.69;79.22;101720.96;107172;1252;70524;-67
2022/03/06 03:13:39;;;;;;;16.60;7.70;;;;;;;-0.71;78.93;101723.38;107363;1251;72981;-72
2022/03/06 03:16:08;;;;;;;15.20;9.50;;;;;;;-0.76;79.18;101719.14;107278;1251;60460;-71
2022/03/06 03:18:37;;;;;;;16.00;8.90;;;;;;;-0.81;79.45;101722.59;107269;1251;60487;-70
2022/03/06 03:21:07;;;;;;;16.20;9.00;;;;;;;-0.83;79.63;101722.80;107134;1251;74823;-70
2022/03/06 03:23:35;;;;;;;19.10;9.90;;;;;;;-0.82;79.77;101718.00;107312;1251;73210;-68
2022/03/06 03:26:04;;;;;;;18.80;10.60;;;;;;;-0.85;79.74;101717.68;107214;1251;70975;-70
2022/03/06 03:28:34;;;;;;;20.20;10.30;;;;;;;-0.91;80.55;101718.09;107332;1251;73226;-71
2022/03/06 03:31:03;;;;;;;17.70;10.50;;;;;;;-0.85;80.26;101718.02;107113;1252;60275;-72
2022/03/06 03:33:31;;;;;;;20.20;11.00;;;;;;;-0.81;80.01;101716.63;107355;1251;62156;-72
2022/03/06 03:36:02;;;;;;;21.10;10.00;;;;;;;-0.77;80.06;101717.61;107402;1251;74730;-72
2022/03/06 03:38:31;;;;;;;17.40;10.70;;;;;;;-0.75;80.00;101720.84;107356;1251;74031;-70
2022/03/06 03:41:05;;;;;;;16.90;9.40;;;;;;;-0.68;80.22;101720.63;107384;1251;69481;-71
2022/03/06 03:43:35;;;;;;;16.40;8.90;;;;;;;-0.66;79.69;101719.57;107387;1250;71996;-69
2022/03/06 03:46:06;;;;;;;13.90;7.80;;;;;;;-0.66;79.30;101722.99;107367;1251;60517;-68
2022/03/06 03:48:36;;;;;;;13.90;8.10;;;;;;;-0.70;79.30;101725.42;107296;1250;60420;-70
2022/03/06 03:51:05;;;;;;;16.10;8.70;;;;;;;-0.75;79.27;101729.06;107354;1251;74106;-70
2022/03/06 03:53:34;;;;;;;16.80;8.40;;;;;;;-0.80;79.54;101731.33;107266;1251;70808;-71
2022/03/06 03:56:06;;;;;;;13.80;8.00;;;;;;;-0.75;79.40;101732.98;107526;1251;70927;-70
2022/03/06 03:58:36;;;;;;;16.10;8.50;;;;;;;-0.79;79.19;101733.36;107361;1251;74283;-71
2022/03/06 04:01:05;;;;;;;15.90;8.40;;;;;;;-0.84;79.20;101740.24;107362;1251;62612;-72
2022/03/06 04:03:34;;;;;;;18.30;10.70;;;;;;;-0.87;79.70;101743.02;107523;1251;60091;-72
2022/03/06 04:06:03;;;;;;;14.30;7.70;;;;;;;-0.86;79.73;101740.80;107255;1251;73589;-71
2022/03/06 04:08:32;;;;;;;18.50;10.30;;;;;;;-0.79;79.40;101745.34;107362;1251;72897;-70
2022/03/06 04:11:01;;;;;;;16.90;9.20;;;;;;;-0.85;79.43;101742.83;107338;1251;69933;-70
2022/03/06 04:13:30;;;;;;;18.40;9.20;;;;;;;-0.86;79.40;101744.55;107359;1251;74244;-70
2022/03/06 04:15:59;;;;;;;19.00;10.00;;;;;;;-0.88;79.61;101743.73;107366;1251;60948;-73
2022/03/06 04:18:29;;;;;;;18.50;10.50;;;;;;;-0.84;79.84;101748.13;107397;1251;60468;-73
2022/03/06 04:20:58;;;;;;;17.50;9.20;;;;;;;-0.81;79.94;101748.61;107335;1251;74379;-72
2022/03/06 04:23:27;;;;;;;15.40;9.30;;;;;;;-0.73;80.01;101744.61;106937;1252;72170;-71
2022/03/06 04:25:56;;;;;;;16.00;9.00;;;;;;;-0.70;79.89;101747.83;107169;1251;71985;-72
2022/03/06 04:28:25;;;;;;;16.30;7.70;;;;;;;-0.71;79.02;101742.36;107136;1251;74302;-72
2022/03/06 04:30:54;;;;;;;13.50;7.70;;;;;;;-0.73;78.92;101741.86;107021;1251;61642;-71
2022/03/06 04:33:23;;;;;;;18.50;10.30;;;;;;;-0.79;79.36;101747.57;106965;1251;60583;-70
2022/03/06 04:35:52;;;;;;;13.60;7.40;;;;;;;-0.82;79.99;101744.35;107098;1251;74123;-75
2022/03/06 04:38:21;;;;;;;13.60;7.50;;;;;;;-0.73;79.08;101748.20;107079;1251;73684;-70
2022/03/06 04:40:51;;;;;;;15.60;7.70;;;;;;;-0.78;78.93;101746.19;107064;1251;69377;-70
2022/03/06 04:43:20;;;;;;;16.40;8.40;;;;;;;-0.87;79.61;101744.90;106991;1251;74395;-68
2022/03/06 04:45:49;;;;;;;17.90;10.10;;;;;;;-0.88;80.48;101751.41;107044;1250;62529;-68
2022/03/06 04:48:17;;;;;;;19.30;10.50;;;;;;;-0.84;80.33;101757.20;107008;1251;62267;-70
2022/03/06 04:50:46;;;;;;;15.50;8.80;;;;;;;-0.78;80.07;101761.77;107178;1249;72923;-69
2022/03/06 04:53:15;;;;;;;23.00;12.50;;;;;;;-0.74;79.72;101760.87;107142;1251;69356;-69
2022/03/06 04:55:44;;;;;;;22.30;11.50;;;;;;;-0.82;80.46;101759.23;107082;1251;68846;-69
2022/03/06 04:58:13;;;;;;;18.40;10.30;;;;;;;-0.73;79.95;101758.80;107186;1251;72403;-69
2022/03/06 05:00:42;;;;;;;22.40;12.80;;;;;;;-0.68;79.88;101758.24;107149;1251;60692;-71
2022/03/06 05:03:11;;;;;;;20.90;13.20;;;;;;;-0.61;79.97;101755.61;107060;1251;59857;-70
2022/03/06 05:05:41;;;;;;;21.10;12.20;;;;;;;-0.57;80.08;101755.92;107140;1251;72424;-71
2022/03/06 05:08:10;;;;;;;21.10;12.10;;;;;;;-0.54;79.99;101758.46;107117;1251;71479;-74
2022/03/06 05:10:39;;;;;;;19.00;10.40;;;;;;;-0.54;79.93;101762.39;107175;1251;70312;-72
2022/03/06 05:13:09;;;;;;;19.40;10.70;;;;;;;-0.52;79.88;101768.36;107184;1253;73819;-71
2022/03/06 05:15:38;;;;;;;15.30;9.50;;;;;;;-0.50;79.73;101766.98;107223;1252;63885;-72
2022/03/06 05:18:07;;;;;;;20.20;10.50;;;;;;;-0.44;79.95;101769.83;107190;1253;61189;-72
2022/03/06 05:20:35;;;;;;;19.90;11.50;;;;;;;-0.46;79.60;101770.02;107158;1253;74487;-72
2022/03/06 05:23:04;;;;;;;20.20;12.50;;;;;;;-0.43;79.27;101779.05;107322;1253;71007;-72
2022/03/06 05:25:33;;;;;;;42.80;32.30;;;;;;;-0.40;79.13;101781.26;107262;1253;67980;-73
2022/03/06 05:28:02;;;;;;;24.00;12.70;;;;;;;-0.46;79.02;101780.80;107052;1251;71264;-73
2022/03/06 05:30:31;;;;;;;16.90;10.00;;;;;;;-0.37;79.34;101782.09;107010;1253;61467;-74
2022/03/06 05:33:00;;;;;;;18.70;10.60;;;;;;;-0.32;79.58;101782.70;106895;1253;59966;-69
2022/03/06 05:35:29;;;;;;;14.70;8.50;;;;;;;-0.30;79.47;101785.09;107093;1252;74322;-72
2022/03/06 05:37:59;;;;;;;14.10;9.20;;;;;;;-0.30;78.93;101786.79;107162;1251;70388;-71
2022/03/06 05:40:27;;;;;;;16.00;8.30;;;;;;;-0.33;78.67;101782.90;107062;1254;68517;-73
2022/03/06 05:42:56;;;;;;;14.70;8.40;;;;;;;-0.35;78.89;101786.67;107070;1254;72007;-72
2022/03/06 05:45:27;;;;;;;15.80;8.80;;;;;;;-0.32;78.69;101786.14;106883;1253;60950;-70
2022/03/06 05:47:56;;;;;;;16.60;8.10;;;;;;;-0.29;78.16;101784.55;107007;1254;61617;-73
2022/03/06 05:50:25;;;;;;;14.10;7.50;;;;;;;-0.30;78.05;101786.12;106989;1254;73524;-71
2022/03/06 05:52:54;;;;;;;14.50;7.40;;;;;;;-0.33;77.83;101783.73;107114;1253;72611;-73
2022/03/06 05:55:23;;;;;;;19.00;9.50;;;;;;;-0.38;78.10;101791.16;107220;1253;70131;-71
2022/03/06 05:57:51;;;;;;;17.50;10.10;;;;;;;-0.36;78.21;101795.42;107005;1253;73645;-73
2022/03/06 06:00:20;;;;;;;17.50;8.50;;;;;;;-0.36;77.92;101792.84;107065;1254;60734;-73
2022/03/06 06:02:49;;;;;;;17.20;9.00;;;;;;;-0.38;77.98;101794.25;107073;1254;59112;-73
2022/03/06 06:05:18;;;;;;;16.40;8.90;;;;;;;-0.42;78.27;101794.46;107097;1253;70963;-76
2022/03/06 06:07:50;;;;;;;14.10;7.50;;;;;;;-0.43;78.32;101794.29;107042;1254;71209;-74
2022/03/06 06:10:19;;;;;;;12.10;6.80;;;;;;;-0.38;78.45;101797.67;107098;1253;67997;-74
2022/03/06 06:12:48;;;;;;;12.40;7.10;;;;;;;-0.35;77.84;101796.77;107081;1252;73186;-74
2022/03/06 06:15:16;;;;;;;13.80;8.70;;;;;;;-0.36;78.03;101802.43;107205;1250;62709;-76
2022/03/06 06:17:45;;;;;;;13.60;7.50;;;;;;;-0.37;77.87;101799.55;107170;1253;62029;-75
2022/03/06 06:20:14;;;;;;;15.20;8.90;;;;;;;-0.31;77.95;101798.80;107222;1252;72633;-74
2022/03/06 06:22:43;;;;;;;14.70;6.60;;;;;;;-0.30;77.83;101804.59;107269;1253;70008;-72
2022/03/06 06:25:12;;;;;;;14.60;7.20;;;;;;;-0.26;77.56;101807.13;107325;1253;69783;-75
2022/03/06 06:27:41;;;;;;;14.60;8.00;;;;;;;-0.25;77.53;101810.04;107689;1251;72005;-73
2022/03/06 06:30:10;;;;;;;13.90;7.40;;;;;;;-0.24;77.62;101808.48;107316;1250;61274;-75
2022/03/06 06:32:41;;;;;;;13.60;7.90;;;;;;;-0.18;77.79;101809.27;106933;1252;59373;-74
2022/03/06 06:35:10;;;;;;;15.00;8.10;;;;;;;-0.18;77.62;101809.79;107151;1250;70872;-74
2022/03/06 06:37:39;;;;;;;13.40;8.40;;;;;;;-0.07;77.20;101811.90;107174;1251;72307;-74
2022/03/06 06:40:09;;;;;;;15.30;8.50;;;;;;;-0.02;77.20;101815.10;107253;1250;69202;-75
2022/03/06 06:42:38;;;;;;;14.10;8.30;;;;;;;0.05;77.03;101815.70;107211;1250;74975;-77
2022/03/06 06:45:07;;;;;;;12.00;7.50;;;;;;;0.09;77.13;101814.63;107190;1250;62645;-75
2022/03/06 06:47:36;;;;;;;15.80;8.50;;;;;;;0.15;76.21;101821.76;107248;1251;59576;-76
2022/03/06 06:50:05;;;;;;;14.10;8.00;;;;;;;0.10;76.51;101821.30;107361;1250;73628;-78
2022/03/06 06:52:34;;;;;;;11.50;6.80;;;;;;;0.13;76.45;101819.22;107427;1251;70553;-76
2022/03/06 06:55:05;;;;;;;15.00;8.50;;;;;;;0.18;76.45;101817.61;107454;1251;68729;-75
2022/03/06 06:57:35;;;;;;;14.70;8.30;;;;;;;0.23;76.47;101823.90;107386;1253;72319;-74
2022/03/06 07:00:05;;;;;;;10.70;6.30;;;;;;;0.33;75.49;101820.17;107207;1251;61470;-74
2022/03/06 07:02:34;;;;;;;10.90;6.40;;;;;;;0.37;74.98;101821.50;107399;1250;61729;-74
2022/03/06 07:05:04;;;;;;;12.90;8.00;;;;;;;0.36;75.03;101823.40;107344;1250;73315;-74
2022/03/06 07:07:33;;;;;;;18.20;9.50;;;;;;;0.41;75.08;101825.05;107382;1250;71127;-75
2022/03/06 07:10:09;;;;;;;18.40;10.60;;;;;;;0.43;75.56;101828.27;107364;1250;70570;-75
2022/03/06 07:12:53;;;;;;;20.50;11.90;;;;;;;0.43;74.73;101827.92;107373;1252;72363;-73
2022/03/06 07:15:32;;;;;;;17.30;11.10;;;;;;;0.61;73.88;101832.34;107380;1250;59410;-76
2022/03/06 07:18:02;;;;;;;19.70;10.00;;;;;;;0.74;73.80;101829.92;106946;1250;60562;-75
2022/03/06 07:20:31;;;;;;;17.10;9.00;;;;;;;0.91;74.22;101829.52;106996;1253;71010;-75
2022/03/06 07:23:05;;;;;;;14.30;7.90;;;;;;;1.04;73.95;101825.73;107173;1250;69686;-76
2022/03/06 07:25:34;;;;;;;23.10;13.70;;;;;;;1.10;73.01;101825.81;107201;1250;67188;-75
2022/03/06 07:28:04;;;;;;;23.60;12.90;;;;;;;1.13;73.47;101823.87;106703;1253;585532;-77
2022/03/06 07:30:33;;;;;;;21.20;11.00;;;;;;;1.20;71.78;101821.52;107085;1253;59028;-77
2022/03/06 07:33:02;;;;;;;17.80;9.70;;;;;;;1.35;72.07;101820.60;107006;1251;60350;-76
2022/03/06 07:35:32;;;;;;;16.10;10.30;;;;;;;1.12;71.47;101820.30;107106;1252;71526;-77
2022/03/06 07:38:01;;;;;;;18.60;11.60;;;;;;;1.39;73.30;101816.76;107232;1250;70726;-76
2022/03/06 07:40:30;;;;;;;25.90;16.20;;;;;;;1.48;72.67;101818.48;107072;1251;68706;-76
2022/03/06 07:42:59;;;;;;;18.10;10.60;;;;;;;1.55;71.28;101817.68;107162;1250;71959;-75
2022/03/06 07:45:28;;;;;;;19.00;12.30;;;;;;;1.69;70.80;101816.23;107178;1250;58942;-76
2022/03/06 07:47:57;;;;;;;15.80;10.70;;;;;;;1.75;68.66;101813.73;107064;1251;61292;-75
2022/03/06 07:50:26;;;;;;;18.20;8.80;;;;;;;1.99;71.98;101815.17;107058;1251;75260;-74
2022/03/06 07:52:56;;;;;;;13.00;8.60;;;;;;;2.04;69.55;101820.73;107071;1250;72578;-75
2022/03/06 07:55:25;;;;;;;13.80;8.70;;;;;;;1.88;68.91;101823.44;106959;1251;70318;-76
2022/03/06 07:57:54;;;;;;;18.30;9.40;;;;;;;1.95;69.63;101820.92;106908;1253;75310;-74
2022/03/06 08:00:23;;;;;;;20.40;8.80;;;;;;;1.81;68.74;101820.33;107153;1253;62687;-75
2022/03/06 08:02:51;;;;;;;14.50;7.30;;;;;;;2.13;68.54;101824.70;106987;1253;62113;-76
2022/03/06 08:05:20;;;;;;;13.90;8.60;;;;;;;2.14;67.55;101822.60;107261;1253;74362;-75
2022/03/06 08:07:49;;;;;;;14.90;7.70;;;;;;;2.07;68.02;101824.30;106910;1253;73104;-78
2022/03/06 08:10:18;;;;;;;13.70;7.30;;;;;;;2.04;68.16;101817.48;106921;1253;70199;-73
2022/03/06 08:12:49;;;;;;;14.00;8.20;;;;;;;1.96;67.58;101814.53;106918;1253;72338;-73
2022/03/06 08:15:17;;;;;;;15.60;8.20;;;;;;;1.86;67.40;101819.70;107141;1253;59662;-75
2022/03/06 08:17:46;;;;;;;14.20;9.10;;;;;;;1.79;67.23;101814.51;106986;1251;60588;-70
2022/03/06 08:20:15;;;;;;;33.70;10.30;;;;;;;1.69;66.79;101814.52;106908;1253;71942;-74
2022/03/06 08:22:44;;;;;;;17.40;9.80;;;;;;;1.78;67.14;101810.58;107092;1253;68583;-71
2022/03/06 08:25:13;;;;;;;17.50;8.50;;;;;;;2.11;66.57;101809.42;106884;1252;68726;-73
2022/03/06 08:27:42;;;;;;;14.70;8.30;;;;;;;2.23;65.20;101809.54;107005;1253;71503;-72
2022/03/06 08:30:13;;;;;;;13.70;8.50;;;;;;;1.98;66.14;101810.38;106951;1253;59040;-72
2022/03/06 08:32:42;;;;;;;21.80;10.00;;;;;;;2.21;67.00;101810.44;107103;1251;60399;-71
2022/03/06 08:35:11;;;;;;;16.30;9.50;;;;;;;2.43;66.55;101809.65;107147;1250;71646;-72
2022/03/06 08:37:41;;;;;;;18.80;9.90;;;;;;;2.69;66.75;101807.34;107185;1250;71799;-74
2022/03/06 08:40:10;;;;;;;15.50;10.30;;;;;;;2.86;65.26;101805.27;107224;1250;70899;-73
2022/03/06 08:42:39;;;;;;;15.30;9.60;;;;;;;2.71;63.81;101807.66;107019;1251;72069;-72
2022/03/06 08:45:09;;;;;;;14.90;8.50;;;;;;;2.89;63.41;101808.80;107070;1251;59877;-73
2022/03/06 08:47:38;;;;;;;13.80;9.10;;;;;;;3.44;61.71;101807.66;107178;1251;60267;-72
2022/03/06 08:50:08;;;;;;;14.50;9.20;;;;;;;3.36;61.48;101805.08;107113;1250;71508;-71
2022/03/06 08:52:37;;;;;;;24.00;10.00;;;;;;;3.28;62.53;101807.00;107266;1250;71213;-73
2022/03/06 08:55:09;;;;;;;23.50;9.80;;;;;;;3.17;60.74;101808.48;107321;1250;70102;-73
2022/03/06 08:57:38;;;;;;;14.20;8.90;;;;;;;3.28;60.39;101811.33;107129;1250;74872;-73
2022/03/06 09:00:08;;;;;;;15.10;9.10;;;;;;;3.43;60.31;101810.08;106933;1250;61304;-71
2022/03/06 09:02:38;;;;;;;13.80;8.70;;;;;;;3.24;59.37;101810.71;106985;1250;62137;-71
2022/03/06 09:05:08;;;;;;;14.90;8.80;;;;;;;3.64;59.31;101811.29;106957;1250;75199;-72
2022/03/06 09:07:36;;;;;;;15.30;8.30;;;;;;;3.94;59.51;101805.64;107054;1250;73196;-72
2022/03/06 09:10:07;;;;;;;12.20;7.60;;;;;;;3.75;57.98;101807.19;107123;1250;70312;-73
2022/03/06 09:12:39;;;;;;;13.50;8.80;;;;;;;3.92;58.74;101805.02;107035;1250;74833;-73
2022/03/06 09:15:10;;;;;;;15.10;9.40;;;;;;;3.96;58.76;101800.76;107040;1251;60234;-73
2022/03/06 09:17:40;;;;;;;13.00;9.00;;;;;;;3.97;57.90;101800.04;106997;1253;59081;-71
2022/03/06 09:20:10;;;;;;;14.10;10.00;;;;;;;4.18;57.30;101799.46;106921;1252;71955;-72
2022/03/06 09:22:39;;;;;;;15.30;9.80;;;;;;;3.52;56.81;101795.38;107061;1250;71535;-72
2022/03/06 09:25:08;;;;;;;17.60;10.10;;;;;;;3.66;57.59;101796.75;106924;1250;71332;-73
2022/03/06 09:27:37;;;;;;;16.50;9.90;;;;;;;3.84;57.27;101796.12;107217;1250;71810;-72
2022/03/06 09:30:08;;;;;;;21.90;10.50;;;;;;;3.81;55.69;101790.48;107141;1250;59735;-72
2022/03/06 09:32:38;;;;;;;15.10;10.00;;;;;;;3.65;56.53;101794.19;107298;1252;60053;-73
2022/03/06 09:35:10;;;;;;;13.70;9.50;;;;;;;4.08;58.64;101793.19;107139;1250;72983;-72
2022/03/06 09:37:45;;;;;;;124.10;45.30;;;;;;;4.25;56.84;101788.73;107193;1250;72971;-72
2022/03/06 09:40:14;;;;;;;21.40;12.60;;;;;;;4.19;56.12;101788.55;106950;1251;70918;-73
2022/03/06 09:42:44;;;;;;;263.40;92.20;;;;;;;4.13;55.94;101784.77;107381;1250;71786;-72
2022/03/06 09:45:15;;;;;;;11.50;8.60;;;;;;;4.10;56.88;101785.02;107023;1253;58961;-74
2022/03/06 09:47:45;;;;;;;13.70;9.90;;;;;;;3.74;55.38;101780.68;107354;1248;60480;-74
2022/03/06 09:50:15;;;;;;;15.80;10.00;;;;;;;3.77;54.49;101779.07;107244;1250;72699;-73
2022/03/06 09:52:44;;;;;;;13.10;8.20;;;;;;;4.05;54.88;101776.05;107192;1250;71597;-72
2022/03/06 09:55:13;;;;;;;13.20;8.80;;;;;;;4.06;54.71;101776.54;107119;1250;69474;-73
2022/03/06 09:57:42;;;;;;;13.30;9.10;;;;;;;3.73;53.18;101771.91;107294;1250;71960;-72
2022/03/06 10:00:12;;;;;;;15.70;9.10;;;;;;;3.94;55.51;101771.02;107102;1250;58950;-72
2022/03/06 10:03:00;;;;;;;14.90;9.30;;;;;;;3.93;54.68;101770.16;107169;1251;60640;-72
2022/03/06 10:05:39;;;;;;;18.30;9.20;;;;;;;3.69;54.40;101765.83;107101;1250;73771;-72
2022/03/06 10:08:43;;;;;;;17.80;10.80;;;;;;;3.76;53.99;101762.88;107187;1250;73270;-73
2022/03/06 10:11:13;;;;;;;16.00;8.60;;;;;;;3.66;55.41;101757.14;106649;1256;68328;-73
2022/03/06 10:13:45;;;;;;;13.60;9.30;;;;;;;3.66;56.44;101756.09;106756;1253;72404;-72
2022/03/06 10:16:20;;;;;;;11.30;7.20;;;;;;;3.50;55.62;101748.93;106890;1253;59881;-73
2022/03/06 10:18:54;;;;;;;14.50;8.90;;;;;;;3.46;54.94;101750.93;106981;1253;62147;-72
2022/03/06 10:21:28;;;;;;;15.60;9.40;;;;;;;3.55;56.17;101745.38;106803;1253;72389;-74
2022/03/06 10:24:01;;;;;;;13.00;9.00;;;;;;;3.47;55.01;101744.88;106759;1253;69350;-73
2022/03/06 10:26:34;;;;;;;13.60;9.80;;;;;;;3.25;55.87;101740.62;106913;1251;70577;-71
2022/03/06 10:29:11;;;;;;;13.40;9.60;;;;;;;3.35;55.64;101739.85;106926;1253;73375;-72
2022/03/06 10:31:55;;;;;;;13.30;9.10;;;;;;;3.46;55.84;101737.01;106998;1251;61466;-70
2022/03/06 10:34:39;;;;;;;13.00;9.20;;;;;;;3.52;55.97;101732.19;107077;1250;59340;-73
2022/03/06 10:37:13;;;;;;;12.20;7.80;;;;;;;3.64;56.45;101732.38;107096;1251;72306;-73
2022/03/06 10:39:45;;;;;;;9.70;6.90;;;;;;;3.59;55.53;101725.78;107089;1250;70905;-72
2022/03/06 10:42:22;;;;;;;12.60;8.00;;;;;;;3.70;55.58;101730.83;107060;1251;71108;-73
2022/03/06 10:44:50;;;;;;;14.50;8.60;;;;;;;3.61;55.42;101725.55;107157;1250;74507;-73
2022/03/06 10:47:20;;;;;;;13.30;9.00;;;;;;;3.46;55.23;101722.36;107099;1250;59669;-71
2022/03/06 10:50:06;;;;;;;14.60;8.60;;;;;;;3.43;55.91;101719.16;107037;1250;61064;-74
2022/03/06 10:52:42;;;;;;;10.80;7.70;;;;;;;3.40;55.28;101714.94;107066;1250;73588;-72
2022/03/06 10:55:11;;;;;;;12.70;8.30;;;;;;;3.35;55.73;101711.61;107061;1249;70806;-73
2022/03/06 10:57:42;;;;;;;12.20;7.90;;;;;;;3.26;54.44;101711.85;107196;1253;67931;-73
2022/03/06 11:00:12;;;;;;;18.80;8.90;;;;;;;3.22;54.44;101708.01;107131;1252;71181;-71
2022/03/06 11:02:41;;;;;;;13.10;8.30;;;;;;;3.11;53.31;101707.09;107071;1251;61945;-73
2022/03/06 11:05:11;;;;;;;16.60;9.10;;;;;;;3.06;53.38;101705.50;107206;1250;60406;-72
2022/03/06 11:07:40;;;;;;;17.30;9.60;;;;;;;3.06;52.93;101707.02;107142;1250;73016;-73
2022/03/06 11:10:12;;;;;;;14.50;8.60;;;;;;;3.04;53.65;101703.29;107068;1253;70883;-74
2022/03/06 11:12:42;;;;;;;12.60;8.20;;;;;;;2.95;53.21;101700.26;107264;1250;67984;-73
2022/03/06 11:15:10;;;;;;;11.00;7.50;;;;;;;2.91;53.21;101699.98;107106;1250;72862;-73
2022/03/06 11:17:41;;;;;;;12.20;7.40;;;;;;;2.93;53.72;101696.69;107261;1250;61097;-73
2022/03/06 11:20:11;;;;;;;12.40;8.00;;;;;;;2.81;53.46;101695.27;107026;1250;60390;-73
2022/03/06 11:23:11;;;;;;;13.60;8.30;;;;;;;2.76;53.22;101695.02;107117;1250;74573;-74